Time;durP1;ratioP1;P1;durP2;ratioP2;P2;SDS_P1;SDS_P2;PMS_P1;PMS_P2;Temp;Humidity;BMP_temperature;BMP_pressure;BME280_temperature;BME280_humidity;BME280_pressure;Samples;Min_cycle;Max_cycle;Signal;HPM_P1;HPM_P2
2020/12/09 00:01:43;;;;;;;29.55;10.15;;;-2.20;63.40;;;;;;5116109;28;20048;-39
2020/12/09 00:04:09;;;;;;;35.63;13.00;;;-2.10;63.40;;;;;;5115615;28;20043;-40
2020/12/09 00:06:38;;;;;;;24.70;10.52;;;-2.10;63.40;;;;;;5115910;28;20433;-40
2020/12/09 00:09:08;;;;;;;17.90;9.20;;;-2.10;63.30;;;;;;5115967;28;20072;-39
2020/12/09 00:11:35;;;;;;;23.10;9.77;;;-2.10;63.40;;;;;;5115832;28;20039;-40
2020/12/09 00:14:01;;;;;;;37.28;13.00;;;-2.10;63.20;;;;;;5118238;28;20031;-40
2020/12/09 00:16:27;;;;;;;28.65;11.30;;;-2.10;63.10;;;;;;5119828;28;20031;-39
2020/12/09 00:18:53;;;;;;;22.42;9.55;;;-2.10;63.70;;;;;;5119418;27;20020;-41
2020/12/09 00:21:21;;;;;;;24.27;10.07;;;-2.10;63.30;;;;;;5119261;28;20324;-39
2020/12/09 00:23:56;;;;;;;29.58;11.52;;;-2.10;63.00;;;;;;5119408;28;20030;-40
2020/12/09 00:26:24;;;;;;;21.55;9.93;;;-2.10;63.00;;;;;;5119516;28;20385;-39
2020/12/09 00:28:51;;;;;;;22.23;9.38;;;-2.10;62.90;;;;;;5119428;28;20028;-40
2020/12/09 00:31:19;;;;;;;23.33;10.25;;;-2.10;62.80;;;;;;5118787;28;20391;-39
2020/12/09 00:33:48;;;;;;;28.40;10.95;;;-2.10;62.80;;;;;;5119186;27;20027;-40
2020/12/09 00:36:19;;;;;;;19.17;9.50;;;-2.10;62.80;;;;;;5119366;28;20035;-40
2020/12/09 00:38:49;;;;;;;17.58;9.05;;;-2.10;62.70;;;;;;5119239;28;20047;-40
2020/12/09 00:41:20;;;;;;;20.43;9.60;;;-2.10;62.70;;;;;;5119103;28;20046;-40
2020/12/09 00:43:46;;;;;;;19.35;9.70;;;-2.00;62.80;;;;;;5118603;28;20080;-39
2020/12/09 00:46:16;;;;;;;23.85;8.82;;;-2.10;62.90;;;;;;5119578;28;20093;-39
2020/12/09 00:48:42;;;;;;;18.73;9.05;;;-2.00;62.90;;;;;;5119022;28;20031;-40
2020/12/09 00:51:12;;;;;;;25.80;10.02;;;-2.00;62.70;;;;;;5118877;28;20043;-39
2020/12/09 00:53:37;;;;;;;21.77;9.50;;;-2.00;62.70;;;;;;5119026;28;20019;-39
2020/12/09 00:56:06;;;;;;;24.50;10.50;;;-2.00;62.60;;;;;;5118944;28;20569;-39
2020/12/09 00:58:32;;;;;;;23.58;10.68;;;-2.00;62.70;;;;;;5118096;28;20020;-40
2020/12/09 01:00:57;;;;;;;21.25;9.05;;;-2.00;62.60;;;;;;5118691;28;20047;-39
2020/12/09 01:03:23;;;;;;;20.30;10.65;;;-2.00;62.60;;;;;;5118761;28;20023;-40
2020/12/09 01:05:49;;;;;;;20.27;9.57;;;-2.00;62.50;;;;;;5118959;28;20031;-39
2020/12/09 01:08:14;;;;;;;22.40;9.50;;;-2.00;62.60;;;;;;5118836;28;20033;-40
2020/12/09 01:10:40;;;;;;;19.95;9.80;;;-2.00;62.60;;;;;;5118460;28;20341;-40
2020/12/09 01:13:06;;;;;;;17.27;9.50;;;-2.00;62.70;;;;;;5118228;28;20039;-40
2020/12/09 01:15:31;;;;;;;18.05;8.50;;;-2.00;62.70;;;;;;5119035;28;20039;-40
2020/12/09 01:17:57;;;;;;;20.33;9.48;;;-2.00;62.70;;;;;;5118358;28;20026;-41
2020/12/09 01:20:23;;;;;;;18.25;9.07;;;-2.00;62.80;;;;;;5118131;28;20027;-39
2020/12/09 01:22:48;;;;;;;19.00;10.00;;;-2.00;62.80;;;;;;5118698;28;20015;-41
2020/12/09 01:25:14;;;;;;;19.15;9.82;;;-2.00;62.80;;;;;;5118132;28;20480;-40
2020/12/09 01:27:40;;;;;;;20.13;9.18;;;-2.00;62.80;;;;;;5117805;28;20020;-41
2020/12/09 01:30:05;;;;;;;16.17;8.45;;;-2.00;63.00;;;;;;5117615;28;20079;-39
2020/12/09 01:32:31;;;;;;;22.33;10.55;;;-2.00;63.00;;;;;;5118240;28;20370;-40
2020/12/09 01:34:57;;;;;;;23.23;10.68;;;-2.00;63.20;;;;;;5118209;28;20032;-39
2020/12/09 01:37:23;;;;;;;20.13;9.43;;;-2.00;63.40;;;;;;5118270;28;20405;-41
2020/12/09 01:39:49;;;;;;;19.58;9.05;;;-1.90;63.50;;;;;;5118173;28;20031;-39
2020/12/09 01:42:15;;;;;;;21.80;10.30;;;-1.90;63.50;;;;;;5117499;28;20016;-41
2020/12/09 01:44:41;;;;;;;21.88;10.27;;;-1.90;63.30;;;;;;5117925;28;20030;-40
2020/12/09 01:47:07;;;;;;;18.58;9.40;;;-1.90;63.30;;;;;;5118359;28;20024;-40
2020/12/09 01:49:34;;;;;;;18.90;9.05;;;-1.90;63.30;;;;;;5117014;28;20023;-39
2020/12/09 01:52:04;;;;;;;18.20;9.20;;;-1.90;63.70;;;;;;5117602;28;20044;-40
2020/12/09 01:54:30;;;;;;;19.52;9.13;;;-1.80;63.50;;;;;;5117408;28;20024;-40
2020/12/09 01:57:10;;;;;;;20.05;8.68;;;-1.80;63.40;;;;;;5117582;28;20043;-40
2020/12/09 01:59:37;;;;;;;16.33;9.27;;;-1.70;63.40;;;;;;5117359;28;20023;-40
2020/12/09 02:02:04;;;;;;;19.13;9.80;;;-1.80;63.30;;;;;;5117413;28;20027;-40
2020/12/09 02:04:30;;;;;;;21.85;9.57;;;-1.80;63.30;;;;;;5117526;28;20034;-40
2020/12/09 02:06:56;;;;;;;20.77;9.70;;;-1.70;63.50;;;;;;5118092;28;20028;-40
2020/12/09 02:09:22;;;;;;;16.10;8.73;;;-1.80;63.50;;;;;;5117527;28;20101;-40
2020/12/09 02:11:50;;;;;;;19.65;10.75;;;-1.80;63.50;;;;;;5117043;28;20051;-39
2020/12/09 02:14:16;;;;;;;15.43;8.60;;;-1.80;63.70;;;;;;5117436;28;20344;-40
2020/12/09 02:16:42;;;;;;;17.02;9.35;;;-1.70;63.80;;;;;;5117894;28;20066;-39
2020/12/09 02:19:08;;;;;;;19.23;9.90;;;-1.70;63.90;;;;;;5116494;28;20046;-40
2020/12/09 02:21:35;;;;;;;19.20;9.27;;;-1.70;64.00;;;;;;5117351;28;20409;-39
2020/12/09 02:24:01;;;;;;;26.33;9.55;;;-1.70;64.00;;;;;;5116792;28;20027;-40
2020/12/09 02:26:28;;;;;;;16.42;9.75;;;-1.70;63.90;;;;;;5116887;28;20032;-39
2020/12/09 02:28:54;;;;;;;20.60;10.15;;;-1.70;64.00;;;;;;5117191;28;20023;-40
2020/12/09 02:31:19;;;;;;;30.35;11.48;;;-1.70;64.00;;;;;;5116349;28;20077;-40
2020/12/09 02:33:45;;;;;;;36.50;13.73;;;-1.70;64.10;;;;;;5116698;28;20118;-40
2020/12/09 02:36:11;;;;;;;28.33;11.40;;;-1.60;64.20;;;;;;5116358;28;20443;-39
2020/12/09 02:38:37;;;;;;;22.40;10.00;;;-1.60;64.20;;;;;;5116820;28;20023;-40
2020/12/09 02:41:03;;;;;;;20.77;11.00;;;-1.70;64.30;;;;;;5116744;28;20046;-39
2020/12/09 02:43:29;;;;;;;19.67;10.15;;;-1.70;64.40;;;;;;5116548;28;20092;-40
2020/12/09 02:45:55;;;;;;;22.13;10.52;;;-1.60;64.50;;;;;;5116750;28;20468;-40
2020/12/09 02:48:21;;;;;;;23.90;9.93;;;-1.60;64.40;;;;;;5116236;28;20110;-40
2020/12/09 02:50:47;;;;;;;21.92;10.15;;;-1.70;64.90;;;;;;5116476;28;20027;-40
2020/12/09 02:53:12;;;;;;;25.42;11.32;;;-1.60;64.60;;;;;;5116426;28;20035;-41
2020/12/09 02:55:38;;;;;;;30.67;11.75;;;-1.60;64.70;;;;;;5115849;28;20030;-40
2020/12/09 02:58:04;;;;;;;23.80;11.15;;;-1.70;64.60;;;;;;5116470;28;20107;-41
2020/12/09 03:00:29;;;;;;;19.60;9.98;;;-1.60;64.70;;;;;;5116359;28;20119;-39
2020/12/09 03:02:55;;;;;;;19.80;10.07;;;-1.60;64.70;;;;;;5116086;28;20024;-41
2020/12/09 03:05:21;;;;;;;17.77;10.00;;;-1.70;64.70;;;;;;5116362;28;20028;-40
2020/12/09 03:07:46;;;;;;;20.25;10.48;;;-1.60;64.80;;;;;;5116184;28;20028;-43
2020/12/09 03:10:12;;;;;;;17.05;9.48;;;-1.70;65.00;;;;;;5116688;28;20026;-39
2020/12/09 03:12:38;;;;;;;21.42;10.13;;;-1.60;65.20;;;;;;5116049;28;20066;-39
2020/12/09 03:15:03;;;;;;;20.92;10.18;;;-1.60;65.20;;;;;;5116377;28;20028;-37
2020/12/09 03:17:29;;;;;;;24.00;10.65;;;-1.60;65.20;;;;;;5115874;28;20023;-38
2020/12/09 03:19:55;;;;;;;23.45;11.10;;;-1.60;65.40;;;;;;5116023;28;20023;-37
2020/12/09 03:22:21;;;;;;;22.02;11.93;;;-1.60;65.40;;;;;;5115922;28;20028;-38
2020/12/09 03:24:47;;;;;;;27.38;12.88;;;-1.60;65.60;;;;;;5115641;28;20020;-37
2020/12/09 03:27:13;;;;;;;27.20;11.68;;;-1.60;65.80;;;;;;5115931;28;20027;-38
2020/12/09 03:29:39;;;;;;;17.60;9.88;;;-1.50;65.80;;;;;;5115930;28;20069;-38
2020/12/09 03:32:05;;;;;;;20.02;9.80;;;-1.50;65.80;;;;;;5115794;28;20062;-37
2020/12/09 03:34:31;;;;;;;20.45;9.88;;;-1.50;65.80;;;;;;5115757;28;20023;-39
2020/12/09 03:36:56;;;;;;;24.23;10.98;;;-1.50;65.90;;;;;;5116664;28;20031;-38
2020/12/09 03:39:22;;;;;;;26.08;10.93;;;-1.50;66.10;;;;;;5115574;28;20453;-40
2020/12/09 03:41:48;;;;;;;19.10;9.60;;;-1.50;66.30;;;;;;5116116;28;20024;-37
2020/12/09 03:44:13;;;;;;;22.55;10.52;;;-1.40;66.40;;;;;;5115444;28;20368;-39
2020/12/09 03:46:39;;;;;;;19.30;9.18;;;-1.40;66.50;;;;;;5116162;28;20038;-38
2020/12/09 03:49:05;;;;;;;24.27;10.90;;;-1.40;66.60;;;;;;5120025;28;20121;-38
2020/12/09 03:51:30;;;;;;;24.90;10.38;;;-1.40;66.70;;;;;;5119775;28;20039;-37
2020/12/09 03:53:56;;;;;;;23.33;10.80;;;-1.40;66.60;;;;;;5119806;28;20103;-39
2020/12/09 03:56:22;;;;;;;29.50;12.27;;;-1.30;66.70;;;;;;5120198;28;20417;-37
2020/12/09 03:58:47;;;;;;;23.95;11.38;;;-1.30;66.70;;;;;;5119653;28;20019;-39
2020/12/09 04:01:13;;;;;;;27.00;11.88;;;-1.30;66.60;;;;;;5119929;28;20032;-39
2020/12/09 04:03:39;;;;;;;25.50;11.70;;;-1.30;66.60;;;;;;5119924;28;20078;-38
2020/12/09 04:06:05;;;;;;;22.30;10.65;;;-1.20;66.70;;;;;;5119898;28;20397;-37
2020/12/09 04:08:30;;;;;;;29.10;11.07;;;-1.30;66.70;;;;;;5119743;28;20096;-38
2020/12/09 04:10:56;;;;;;;22.33;10.05;;;-1.20;66.60;;;;;;5119588;28;20043;-37
2020/12/09 04:13:21;;;;;;;18.10;9.98;;;-1.20;66.60;;;;;;5119368;28;20065;-39
2020/12/09 04:15:47;;;;;;;26.77;12.55;;;-1.20;66.60;;;;;;5119511;28;20035;-37
2020/12/09 04:18:13;;;;;;;26.00;11.27;;;-1.20;66.50;;;;;;5118876;28;20337;-39
2020/12/09 04:20:39;;;;;;;22.45;10.73;;;-1.20;66.50;;;;;;5119446;28;20042;-38
2020/12/09 04:23:04;;;;;;;25.90;11.77;;;-1.20;66.60;;;;;;5119106;28;20012;-40
2020/12/09 04:25:30;;;;;;;21.38;10.70;;;-1.30;66.50;;;;;;5119642;28;20336;-38
2020/12/09 04:27:56;;;;;;;20.30;10.63;;;-1.20;66.60;;;;;;5119458;28;20023;-38
2020/12/09 04:30:21;;;;;;;19.75;10.35;;;-1.30;66.80;;;;;;5118816;28;20070;-37
2020/12/09 04:32:47;;;;;;;23.40;11.30;;;-1.20;66.80;;;;;;5118733;28;20041;-41
2020/12/09 04:35:13;;;;;;;23.50;10.27;;;-1.20;66.70;;;;;;5119020;28;20028;-39
2020/12/09 04:37:39;;;;;;;24.65;11.23;;;-1.30;66.60;;;;;;5119246;28;20068;-40
2020/12/09 04:40:06;;;;;;;20.83;10.32;;;-1.30;66.70;;;;;;5118587;28;20054;-39
2020/12/09 04:42:31;;;;;;;19.35;9.98;;;-1.30;66.90;;;;;;5119197;28;20405;-41
2020/12/09 04:44:58;;;;;;;21.73;10.13;;;-1.30;67.10;;;;;;5118821;28;20031;-40
2020/12/09 04:47:29;;;;;;;21.40;10.88;;;-1.30;67.10;;;;;;5118367;28;20023;-39
2020/12/09 04:50:08;;;;;;;18.23;9.55;;;-1.20;67.20;;;;;;5119074;28;20023;-39
2020/12/09 04:52:40;;;;;;;23.95;10.80;;;-1.30;67.30;;;;;;5118932;28;20031;-40
2020/12/09 04:55:09;;;;;;;26.38;11.73;;;-1.20;67.30;;;;;;5118081;28;20039;-39
2020/12/09 04:57:42;;;;;;;28.85;12.38;;;-1.20;67.40;;;;;;5119269;28;20106;-40
2020/12/09 05:00:13;;;;;;;19.73;10.68;;;-1.20;67.60;;;;;;5118065;28;20024;-40
2020/12/09 05:02:53;;;;;;;21.30;11.50;;;-1.20;67.60;;;;;;5118297;27;20038;-40
2020/12/09 05:05:21;;;;;;;17.75;9.82;;;-1.20;67.60;;;;;;5118623;28;20417;-40
2020/12/09 05:07:48;;;;;;;24.05;11.20;;;-1.20;67.60;;;;;;5118394;28;20053;-40
2020/12/09 05:10:22;;;;;;;23.02;11.35;;;-1.20;67.70;;;;;;5118479;28;20023;-40
2020/12/09 05:12:50;;;;;;;27.05;12.20;;;-1.20;67.80;;;;;;5118840;28;20399;-39
2020/12/09 05:15:24;;;;;;;27.00;11.52;;;-1.20;67.90;;;;;;5117838;28;20038;-39
2020/12/09 05:18:04;;;;;;;25.25;11.73;;;-1.10;68.60;;;;;;5118810;28;20122;-40
2020/12/09 05:20:38;;;;;;;21.15;11.00;;;-1.10;68.20;;;;;;5117891;28;20024;-39
2020/12/09 05:23:06;;;;;;;22.95;10.93;;;-1.10;68.10;;;;;;5118114;28;20118;-39
2020/12/09 05:25:33;;;;;;;19.23;10.88;;;-1.10;68.20;;;;;;5117159;28;20049;-39
2020/12/09 05:28:00;;;;;;;18.52;9.48;;;-1.10;68.30;;;;;;5117806;28;20076;-38
2020/12/09 05:30:46;;;;;;;34.45;16.33;;;-1.10;68.20;;;;;;5116626;28;20412;-38
2020/12/09 05:33:31;;;;;;;27.20;12.23;;;-1.10;68.40;;;;;;5118167;28;20027;-38
2020/12/09 05:36:02;;;;;;;24.33;11.90;;;-1.10;68.40;;;;;;5115893;28;20371;-38
2020/12/09 05:38:29;;;;;;;30.27;13.80;;;-1.10;68.30;;;;;;5117597;27;20365;-38
2020/12/09 05:40:56;;;;;;;30.25;15.07;;;-1.10;68.30;;;;;;5116807;28;20481;-38
2020/12/09 05:43:22;;;;;;;33.10;16.33;;;-1.10;68.50;;;;;;5117135;28;20028;-38
2020/12/09 05:45:48;;;;;;;29.65;13.45;;;-1.00;68.60;;;;;;5116732;28;20071;-37
2020/12/09 05:48:21;;;;;;;27.70;13.25;;;-1.00;68.50;;;;;;5116631;28;20055;-38
2020/12/09 05:51:01;;;;;;;27.70;12.95;;;-1.00;68.60;;;;;;5116952;28;20122;-40
2020/12/09 05:53:28;;;;;;;30.00;14.05;;;-1.00;68.70;;;;;;5116865;28;20027;-38
2020/12/09 05:56:11;;;;;;;25.20;13.00;;;-1.00;68.60;;;;;;5117375;28;20122;-39
2020/12/09 05:58:45;;;;;;;28.63;12.60;;;-1.00;68.90;;;;;;5117273;28;20054;-38
2020/12/09 06:01:23;;;;;;;26.80;13.05;;;-1.00;69.00;;;;;;5116238;28;20055;-38
2020/12/09 06:03:54;;;;;;;36.95;15.38;;;-1.00;69.10;;;;;;5117789;28;20378;-38
2020/12/09 06:06:24;;;;;;;27.45;12.50;;;-1.00;69.30;;;;;;5117759;28;20105;-38
2020/12/09 06:08:51;;;;;;;30.65;14.13;;;-1.00;69.40;;;;;;5117247;28;20058;-39
2020/12/09 06:11:31;;;;;;;26.23;13.32;;;-1.00;69.50;;;;;;5116609;28;20051;-38
2020/12/09 06:13:58;;;;;;;32.85;14.05;;;-1.00;69.70;;;;;;5117272;28;20383;-39
2020/12/09 06:16:24;;;;;;;26.35;12.45;;;-1.00;69.70;;;;;;5115447;27;20035;-38
2020/12/09 06:18:51;;;;;;;25.45;14.07;;;-0.90;70.00;;;;;;5114338;28;20114;-39
2020/12/09 06:21:18;;;;;;;32.85;14.85;;;-0.90;70.00;;;;;;5113045;28;20404;-39
2020/12/09 06:23:44;;;;;;;28.50;13.52;;;-0.90;70.10;;;;;;5116097;28;20447;-39
2020/12/09 06:26:11;;;;;;;35.33;16.13;;;-0.80;70.20;;;;;;5115595;28;20028;-39
2020/12/09 06:28:42;;;;;;;29.05;16.08;;;-0.80;70.30;;;;;;5116594;28;20031;-39
2020/12/09 06:31:16;;;;;;;40.97;18.65;;;-0.80;70.30;;;;;;5115327;28;20051;-39
2020/12/09 06:33:51;;;;;;;30.27;15.23;;;-0.70;70.50;;;;;;5116457;28;20506;-38
2020/12/09 06:36:30;;;;;;;44.17;21.60;;;-0.70;70.50;;;;;;5116684;28;20027;-39
2020/12/09 06:39:08;;;;;;;48.72;26.35;;;-0.60;70.60;;;;;;5116515;28;20429;-39
2020/12/09 06:41:35;;;;;;;36.15;18.10;;;-0.60;70.50;;;;;;5117254;28;20032;-39
2020/12/09 06:44:02;;;;;;;53.60;24.25;;;-0.60;70.20;;;;;;5116449;28;20443;-39
2020/12/09 06:46:38;;;;;;;32.83;17.25;;;-0.50;70.30;;;;;;5115255;28;20027;-38
2020/12/09 06:49:05;;;;;;;36.83;17.63;;;-0.50;70.60;;;;;;5116247;28;20026;-39
2020/12/09 06:51:40;;;;;;;32.03;15.63;;;-0.50;70.50;;;;;;5116839;28;20043;-38
2020/12/09 06:54:13;;;;;;;32.72;15.25;;;-0.50;70.60;;;;;;5116112;28;20019;-39
2020/12/09 06:56:38;;;;;;;33.33;16.40;;;-0.50;70.50;;;;;;5117111;28;20031;-42
2020/12/09 06:59:26;;;;;;;41.42;17.80;;;-0.40;70.60;;;;;;5115809;28;20072;-43
2020/12/09 07:02:03;;;;;;;34.58;16.15;;;-0.40;70.80;;;;;;5116168;28;20032;-43
2020/12/09 07:04:53;;;;;;;35.05;17.67;;;-0.40;70.90;;;;;;5116462;28;20057;-43
2020/12/09 07:07:34;;;;;;;60.45;28.60;;;-0.30;70.90;;;;;;5114681;28;20344;-43
2020/12/09 07:10:05;;;;;;;47.85;24.65;;;-0.30;70.90;;;;;;5116505;28;20050;-43
2020/12/09 07:12:31;;;;;;;44.28;20.90;;;-0.30;70.80;;;;;;5115912;28;20035;-43
2020/12/09 07:14:58;;;;;;;48.50;25.08;;;-0.30;70.70;;;;;;5113569;28;20024;-43
2020/12/09 07:17:28;;;;;;;37.45;18.65;;;-0.20;71.00;;;;;;5115036;28;20587;-44
2020/12/09 07:19:57;;;;;;;39.27;19.07;;;-0.20;71.50;;;;;;5114364;28;20080;-43
2020/12/09 07:22:24;;;;;;;38.33;15.70;;;-0.20;71.00;;;;;;5113633;28;20020;-43
2020/12/09 07:24:51;;;;;;;34.03;18.13;;;-0.10;71.20;;;;;;5114293;28;20049;-43
2020/12/09 07:27:18;;;;;;;79.18;35.97;;;-0.10;71.20;;;;;;5112748;28;20019;-43
2020/12/09 07:29:46;;;;;;;129.93;49.88;;;-0.10;71.10;;;;;;5113956;28;20023;-44
2020/12/09 07:32:23;;;;;;;155.02;68.60;;;-0.10;70.90;;;;;;5113156;28;20433;-43
2020/12/09 07:35:00;;;;;;;70.65;34.67;;;0.00;71.00;;;;;;5114745;28;20384;-43
2020/12/09 07:37:32;;;;;;;36.92;18.48;;;0.00;70.90;;;;;;5114748;28;20027;-44
2020/12/09 07:40:02;;;;;;;29.48;15.40;;;0.00;70.80;;;;;;5114470;28;20019;-43
2020/12/09 07:42:28;;;;;;;33.60;16.50;;;0.00;70.60;;;;;;5114972;28;20119;-43
2020/12/09 07:44:54;;;;;;;35.35;15.57;;;0.00;70.40;;;;;;5114240;28;20055;-43
2020/12/09 07:47:23;;;;;;;38.08;16.27;;;0.00;70.50;;;;;;5115246;28;20456;-43
2020/12/09 07:49:51;;;;;;;37.28;17.45;;;0.00;70.60;;;;;;5115835;28;20310;-43
2020/12/09 07:52:21;;;;;;;37.78;16.98;;;-0.10;70.50;;;;;;5114136;28;20058;-43
2020/12/09 07:54:47;;;;;;;39.33;17.52;;;-0.10;70.70;;;;;;5114990;28;20031;-43
2020/12/09 07:57:13;;;;;;;41.67;17.90;;;-0.10;70.70;;;;;;5113569;28;20024;-43
2020/12/09 07:59:39;;;;;;;38.60;16.17;;;-0.10;70.70;;;;;;5113085;28;20408;-43
2020/12/09 08:02:21;;;;;;;35.58;15.18;;;-0.10;70.80;;;;;;5113704;28;20055;-43
2020/12/09 08:05:06;;;;;;;37.22;15.13;;;-0.10;70.80;;;;;;5114538;28;20031;-43
2020/12/09 08:07:31;;;;;;;34.55;15.45;;;-0.10;70.70;;;;;;5113855;28;20057;-43
2020/12/09 08:10:08;;;;;;;45.58;21.45;;;-0.10;70.70;;;;;;5113012;28;20063;-44
2020/12/09 08:12:36;;;;;;;28.55;14.40;;;-0.10;71.20;;;;;;5113967;28;20066;-43
2020/12/09 08:15:03;;;;;;;28.35;14.65;;;-0.10;71.00;;;;;;5112936;28;20118;-43
2020/12/09 08:17:30;;;;;;;39.13;17.52;;;-0.10;71.10;;;;;;5114669;28;20179;-44
2020/12/09 08:20:07;;;;;;;33.75;15.50;;;-0.10;71.20;;;;;;5113679;28;20039;-44
2020/12/09 08:22:52;;;;;;;36.17;16.73;;;-0.10;71.40;;;;;;5114800;28;20400;-43
2020/12/09 08:25:18;;;;;;;34.05;14.40;;;0.00;71.50;;;;;;5114903;28;20099;-44
2020/12/09 08:27:45;;;;;;;34.08;14.90;;;0.00;71.10;;;;;;5102850;28;20434;-44
2020/12/09 08:30:17;;;;;;;38.00;16.17;;;0.00;71.00;;;;;;5109268;28;20168;-43
2020/12/09 08:33:03;;;;;;;28.98;14.40;;;0.00;71.30;;;;;;5115023;28;20471;-43
2020/12/09 08:35:51;;;;;;;28.38;15.23;;;0.00;71.30;;;;;;5118180;28;20500;-43
2020/12/09 08:38:34;;;;;;;38.10;15.45;;;0.00;71.20;;;;;;5118267;28;20126;-43
2020/12/09 08:41:03;;;;;;;36.75;16.35;;;0.10;71.20;;;;;;5118873;28;20020;-43
2020/12/09 08:43:32;;;;;;;37.00;15.63;;;0.10;71.20;;;;;;5118421;28;20126;-44
2020/12/09 08:45:58;;;;;;;86.63;38.72;;;0.10;71.20;;;;;;5119276;28;20019;-43
2020/12/09 08:48:24;;;;;;;101.63;50.60;;;0.10;71.30;;;;;;5118824;28;20038;-43
2020/12/09 08:50:51;;;;;;;192.25;96.10;;;0.10;71.30;;;;;;5117995;28;20028;-43
2020/12/09 08:53:19;;;;;;;56.10;28.70;;;0.10;71.20;;;;;;5118301;28;20030;-43
2020/12/09 08:55:45;;;;;;;42.78;23.73;;;0.10;71.20;;;;;;5114988;28;20027;-43
2020/12/09 08:58:13;;;;;;;58.20;31.15;;;0.10;71.40;;;;;;5117882;28;20404;-43
2020/12/09 09:00:39;;;;;;;59.00;31.55;;;0.10;71.60;;;;;;5117236;28;20068;-43
2020/12/09 09:03:08;;;;;;;49.38;24.60;;;0.20;71.60;;;;;;5098643;28;20149;-43
2020/12/09 09:05:34;;;;;;;43.35;26.83;;;0.20;71.50;;;;;;5110292;28;20028;-42
2020/12/09 09:07:59;;;;;;;44.58;23.70;;;0.20;71.20;;;;;;5097935;28;20020;-43
2020/12/09 09:10:25;;;;;;;40.22;20.20;;;0.20;71.00;;;;;;5110181;28;20302;-44
2020/12/09 09:12:51;;;;;;;38.42;20.15;;;0.20;70.90;;;;;;5107791;28;20038;-43
2020/12/09 09:15:17;;;;;;;35.10;20.08;;;0.10;71.10;;;;;;5103775;28;20032;-42
2020/12/09 09:17:43;;;;;;;32.17;15.50;;;0.10;71.20;;;;;;5117824;28;20035;-43
2020/12/09 09:20:09;;;;;;;42.90;20.50;;;0.20;71.30;;;;;;5116852;28;20054;-39
2020/12/09 09:22:35;;;;;;;42.13;17.23;;;0.20;71.10;;;;;;5111385;28;20074;-40
2020/12/09 09:25:00;;;;;;;38.53;18.90;;;0.10;70.70;;;;;;5104987;28;20077;-39
2020/12/09 09:27:26;;;;;;;35.40;16.05;;;0.10;70.90;;;;;;5099101;28;20038;-39
2020/12/09 09:29:53;;;;;;;51.47;26.38;;;0.10;71.00;;;;;;5102913;28;22087;-39
2020/12/09 09:32:19;;;;;;;43.55;18.58;;;0.10;71.00;;;;;;5109015;28;20116;-39
2020/12/09 09:34:45;;;;;;;35.35;20.23;;;0.10;70.90;;;;;;5109274;28;20020;-39
2020/12/09 09:37:10;;;;;;;35.42;19.15;;;0.10;70.80;;;;;;5102043;28;20042;-40
2020/12/09 09:39:36;;;;;;;43.70;22.65;;;0.10;71.00;;;;;;5115126;28;20062;-39
2020/12/09 09:42:04;;;;;;;38.85;20.40;;;0.20;71.00;;;;;;5103897;28;20062;-39
2020/12/09 09:44:30;;;;;;;59.20;24.17;;;0.20;71.00;;;;;;5110869;28;20023;-39
2020/12/09 09:46:59;;;;;;;87.68;40.58;;;0.20;71.00;;;;;;5101015;28;20020;-39
2020/12/09 09:49:25;;;;;;;34.58;16.13;;;0.20;71.00;;;;;;5098232;28;20081;-39
2020/12/09 09:51:53;;;;;;;32.95;17.98;;;0.20;71.10;;;;;;5104527;28;20154;-38
2020/12/09 09:54:20;;;;;;;40.40;21.65;;;0.20;70.70;;;;;;5111612;28;20045;-39
2020/12/09 09:56:46;;;;;;;51.00;25.63;;;0.20;70.80;;;;;;5110483;28;20031;-39
2020/12/09 09:59:12;;;;;;;101.18;38.33;;;0.20;70.70;;;;;;5110883;28;20115;-40
2020/12/09 10:01:37;;;;;;;81.10;36.65;;;0.20;70.40;;;;;;5107985;28;20481;-39
2020/12/09 10:04:06;;;;;;;46.25;24.70;;;0.20;70.10;;;;;;5111211;28;20080;-39
2020/12/09 10:06:33;;;;;;;63.60;32.40;;;0.20;70.10;;;;;;5107979;28;20452;-38
2020/12/09 10:08:59;;;;;;;48.30;23.80;;;0.10;69.80;;;;;;5104748;28;20024;-39
2020/12/09 10:11:25;;;;;;;42.30;20.70;;;0.10;69.90;;;;;;5111988;28;20394;-39
2020/12/09 10:13:51;;;;;;;43.33;21.67;;;0.10;70.00;;;;;;5104547;28;20020;-40
2020/12/09 10:16:26;;;;;;;37.17;17.98;;;0.00;70.10;;;;;;5104639;28;20027;-38
2020/12/09 10:18:52;;;;;;;39.83;17.98;;;0.10;70.40;;;;;;5109100;28;20034;-38
2020/12/09 10:21:29;;;;;;;37.25;15.93;;;0.00;70.30;;;;;;5116706;28;20031;-39
2020/12/09 10:23:55;;;;;;;32.38;16.75;;;0.00;70.30;;;;;;5106066;28;20445;-39
2020/12/09 10:26:37;;;;;;;28.98;14.23;;;0.00;70.50;;;;;;5116059;28;20081;-39
2020/12/09 10:29:07;;;;;;;33.53;16.13;;;0.00;70.60;;;;;;5115580;28;20053;-38
2020/12/09 10:31:39;;;;;;;47.35;25.40;;;0.00;70.70;;;;;;5110407;28;20051;-39
2020/12/09 10:34:07;;;;;;;59.92;29.92;;;0.10;70.80;;;;;;5114751;28;20661;-39
2020/12/09 10:36:34;;;;;;;48.08;23.15;;;0.10;70.90;;;;;;5114310;28;20501;-39
2020/12/09 10:39:00;;;;;;;41.15;20.77;;;0.10;70.90;;;;;;5114382;28;20490;-39
2020/12/09 10:41:26;;;;;;;59.30;27.25;;;0.10;70.90;;;;;;5113622;28;20035;-39
2020/12/09 10:43:52;;;;;;;57.95;29.33;;;0.10;70.60;;;;;;5115162;28;20027;-40
2020/12/09 10:46:29;;;;;;;38.17;18.20;;;0.10;70.40;;;;;;5116300;28;20045;-39
2020/12/09 10:48:54;;;;;;;38.17;17.35;;;0.10;70.30;;;;;;5116609;28;20024;-39
2020/12/09 10:51:20;;;;;;;32.35;15.65;;;0.10;70.30;;;;;;5116348;28;20383;-39
2020/12/09 10:53:46;;;;;;;35.92;16.80;;;0.10;70.40;;;;;;5116119;28;20036;-41
2020/12/09 10:56:12;;;;;;;82.68;34.38;;;0.10;70.30;;;;;;5114771;28;20024;-39
2020/12/09 10:58:37;;;;;;;54.80;22.17;;;0.10;70.30;;;;;;5115974;28;20118;-39
2020/12/09 11:01:04;;;;;;;42.65;21.65;;;0.10;70.40;;;;;;5115832;28;20444;-39
2020/12/09 11:03:30;;;;;;;38.28;21.35;;;0.00;70.60;;;;;;5115530;28;20030;-39
2020/12/09 11:05:55;;;;;;;37.03;18.02;;;0.10;70.70;;;;;;5115225;28;20031;-39
2020/12/09 11:08:21;;;;;;;46.92;25.27;;;0.10;70.70;;;;;;5115953;28;20452;-40
2020/12/09 11:10:48;;;;;;;41.33;19.55;;;0.10;70.60;;;;;;5114921;28;20032;-39
2020/12/09 11:13:14;;;;;;;34.45;16.65;;;0.10;70.50;;;;;;5115979;28;20371;-40
2020/12/09 11:15:40;;;;;;;29.85;16.10;;;0.10;70.40;;;;;;5116138;28;20023;-39
2020/12/09 11:18:06;;;;;;;27.52;14.48;;;0.10;70.30;;;;;;5115899;28;20381;-41
2020/12/09 11:20:33;;;;;;;31.83;14.82;;;0.10;70.00;;;;;;5114829;28;20019;-40
2020/12/09 11:22:59;;;;;;;29.15;13.73;;;0.10;70.10;;;;;;5115727;28;20076;-40
2020/12/09 11:25:25;;;;;;;31.35;15.75;;;0.20;70.10;;;;;;5115348;28;20020;-40
2020/12/09 11:27:51;;;;;;;34.20;15.98;;;0.20;70.10;;;;;;5116467;28;20028;-41
2020/12/09 11:30:17;;;;;;;46.05;22.50;;;0.20;70.10;;;;;;5115239;28;20047;-39
2020/12/09 11:32:43;;;;;;;40.97;18.38;;;0.20;70.10;;;;;;5113792;28;20042;-40
2020/12/09 11:35:09;;;;;;;41.53;20.45;;;0.20;69.90;;;;;;5115883;28;20039;-40
2020/12/09 11:37:35;;;;;;;31.75;16.33;;;0.20;70.00;;;;;;5116105;28;20077;-41
2020/12/09 11:40:01;;;;;;;33.45;17.92;;;0.20;70.00;;;;;;5113871;28;20028;-40
2020/12/09 11:42:27;;;;;;;35.72;16.92;;;0.20;70.00;;;;;;5110199;28;20031;-40
2020/12/09 11:44:53;;;;;;;38.75;18.23;;;0.20;70.00;;;;;;5115112;28;20036;-44
2020/12/09 11:47:18;;;;;;;35.92;17.90;;;0.20;70.10;;;;;;5115457;28;20036;-43
2020/12/09 11:49:45;;;;;;;42.80;21.27;;;0.20;70.10;;;;;;5115154;28;20024;-44
2020/12/09 11:52:10;;;;;;;43.53;20.48;;;0.20;69.90;;;;;;5114865;28;20115;-43
2020/12/09 11:54:36;;;;;;;39.00;19.55;;;0.20;69.70;;;;;;5114491;28;20089;-43
2020/12/09 11:57:03;;;;;;;40.80;20.08;;;0.20;69.60;;;;;;5115218;28;20032;-43
2020/12/09 11:59:28;;;;;;;40.75;21.63;;;0.20;69.40;;;;;;5115446;28;20023;-43
2020/12/09 12:01:54;;;;;;;50.95;25.65;;;0.20;69.40;;;;;;5116152;28;20045;-43
2020/12/09 12:04:20;;;;;;;29.98;16.35;;;0.10;69.40;;;;;;5114905;28;20034;-43
2020/12/09 12:06:46;;;;;;;34.88;18.38;;;0.10;69.40;;;;;;5115315;28;20023;-43
2020/12/09 12:09:11;;;;;;;34.17;16.45;;;0.00;69.40;;;;;;5118449;28;20034;-43
2020/12/09 12:11:37;;;;;;;30.98;16.55;;;0.00;69.50;;;;;;5119373;28;20435;-43
2020/12/09 12:14:03;;;;;;;25.60;14.05;;;0.00;69.80;;;;;;5119761;28;20029;-44
2020/12/09 12:16:29;;;;;;;30.33;16.55;;;0.00;69.80;;;;;;5119722;28;20038;-42
2020/12/09 12:18:55;;;;;;;27.35;13.77;;;0.00;69.90;;;;;;5119573;28;20030;-43
2020/12/09 12:21:24;;;;;;;26.33;15.00;;;0.00;70.00;;;;;;5118886;28;20023;-43
2020/12/09 12:23:50;;;;;;;29.17;14.95;;;0.00;69.90;;;;;;5119435;27;20030;-43
2020/12/09 12:26:19;;;;;;;31.52;14.23;;;0.00;69.90;;;;;;5119522;27;20023;-43
2020/12/09 12:28:45;;;;;;;28.65;15.23;;;0.00;70.10;;;;;;5119505;28;20032;-43
2020/12/09 12:31:13;;;;;;;32.35;19.13;;;0.00;70.30;;;;;;5118824;28;20040;-43
2020/12/09 12:33:39;;;;;;;32.78;18.90;;;0.00;70.50;;;;;;5118650;28;20035;-43
2020/12/09 12:36:06;;;;;;;28.98;16.88;;;0.00;70.60;;;;;;5118402;28;20452;-43
2020/12/09 12:38:32;;;;;;;25.73;14.40;;;0.00;70.50;;;;;;5117103;27;20031;-42